Time;durP1;ratioP1;P1;durP2;ratioP2;P2;SDS_P1;SDS_P2;PMS_P1;PMS_P2;Temp;Humidity;BMP_temperature;BMP_pressure;BME280_temperature;BME280_humidity;BME280_pressure;Samples;Min_cycle;Max_cycle;Signal;HPM_P1;HPM_P2
2022/04/06 00:00:21;;;;;;;20.52;11.88;;;10.60;91.30;;;;;;5052144;28;20064;-32
2022/04/06 00:02:46;;;;;;;19.40;11.18;;;10.60;91.30;;;;;;5052464;28;20497;-33
2022/04/06 00:05:12;;;;;;;18.38;10.52;;;10.60;91.30;;;;;;5052203;28;20056;-31
2022/04/06 00:07:42;;;;;;;22.10;10.60;;;10.60;91.30;;;;;;5052220;28;20102;-34
2022/04/06 00:10:09;;;;;;;16.05;9.80;;;10.60;91.30;;;;;;5050862;28;20307;-35
2022/04/06 00:12:36;;;;;;;17.73;10.20;;;10.60;91.30;;;;;;5052148;28;20025;-38
2022/04/06 00:15:03;;;;;;;20.60;10.65;;;10.60;91.30;;;;;;5052290;28;20103;-38
2022/04/06 00:17:29;;;;;;;17.15;9.35;;;10.60;91.30;;;;;;5052195;28;20036;-36
2022/04/06 00:19:55;;;;;;;22.58;10.32;;;10.60;91.30;;;;;;5052120;28;20025;-38
2022/04/06 00:22:20;;;;;;;17.55;9.50;;;10.60;91.20;;;;;;5052076;28;20029;-34
2022/04/06 00:24:47;;;;;;;22.08;10.38;;;10.50;91.20;;;;;;5052168;28;20032;-32
2022/04/06 00:27:13;;;;;;;19.05;10.57;;;10.50;91.20;;;;;;5052078;28;20025;-32
2022/04/06 00:29:39;;;;;;;18.63;10.60;;;10.50;91.20;;;;;;5051936;28;20052;-31
2022/04/06 00:32:05;;;;;;;18.23;9.77;;;10.50;91.10;;;;;;5052842;28;20461;-35
2022/04/06 00:37:15;;;;;;;18.92;9.43;;;10.50;91.20;;;;;;5055972;28;20043;-32
2022/04/06 00:39:41;;;;;;;17.30;9.02;;;10.50;91.10;;;;;;5055586;28;20064;-32
2022/04/06 00:42:06;;;;;;;15.50;9.40;;;10.50;91.10;;;;;;5055578;28;20051;-34
2022/04/06 00:44:35;;;;;;;16.77;8.25;;;10.50;91.10;;;;;;5054118;28;20116;-32
2022/04/06 00:47:05;;;;;;;19.00;9.48;;;10.50;91.10;;;;;;5055578;28;20021;-34
2022/04/06 00:49:31;;;;;;;19.20;9.07;;;10.60;91.10;;;;;;5054258;28;20500;-35
2022/04/06 00:51:59;;;;;;;18.10;8.55;;;10.60;91.00;;;;;;5055502;28;20533;-31
2022/04/06 00:54:27;;;;;;;18.25;9.20;;;10.60;91.00;;;;;;5055659;28;20025;-33
2022/04/06 00:56:53;;;;;;;20.33;9.23;;;10.50;90.90;;;;;;5055259;28;20029;-32
2022/04/06 00:59:19;;;;;;;24.83;10.10;;;10.50;90.90;;;;;;5055169;28;20056;-32
2022/04/06 01:01:49;;;;;;;21.50;8.90;;;10.50;90.90;;;;;;5055172;28;20469;-36
2022/04/06 01:04:16;;;;;;;24.90;10.10;;;10.50;90.80;;;;;;5055076;28;20017;-33
2022/04/06 01:06:44;;;;;;;17.75;9.20;;;10.60;90.80;;;;;;5054999;28;20025;-32
2022/04/06 01:09:10;;;;;;;23.50;10.32;;;10.50;90.80;;;;;;5055058;28;20115;-31
2022/04/06 01:11:36;;;;;;;17.25;9.10;;;10.50;90.80;;;;;;5055000;28;20029;-33
2022/04/06 01:14:02;;;;;;;20.80;9.60;;;10.50;90.80;;;;;;5055043;28;20071;-31
2022/04/06 01:16:29;;;;;;;19.10;9.57;;;10.50;90.80;;;;;;5054873;28;20025;-32
2022/04/06 01:18:54;;;;;;;23.45;11.57;;;10.50;90.80;;;;;;5054792;28;20017;-32
2022/04/06 01:21:21;;;;;;;20.38;10.50;;;10.50;90.70;;;;;;5054808;28;20445;-32
2022/04/06 01:23:47;;;;;;;17.98;10.50;;;10.40;90.70;;;;;;5054768;28;20401;-33
2022/04/06 01:26:13;;;;;;;21.40;10.57;;;10.40;90.70;;;;;;5053352;28;20021;-31
2022/04/06 01:28:40;;;;;;;21.08;10.30;;;10.40;90.70;;;;;;5054648;28;20024;-35
2022/04/06 01:31:06;;;;;;;24.30;11.00;;;10.40;90.60;;;;;;5054613;28;20057;-32
2022/04/06 01:33:31;;;;;;;14.85;8.57;;;10.40;90.70;;;;;;5054576;28;20020;-31
2022/04/06 01:35:59;;;;;;;19.30;10.18;;;10.40;90.70;;;;;;5053290;28;20025;-33
2022/04/06 01:38:24;;;;;;;24.40;10.38;;;10.40;90.70;;;;;;5054559;28;20036;-33
2022/04/06 01:40:51;;;;;;;17.33;8.63;;;10.40;90.60;;;;;;5054388;28;20025;-33
2022/04/06 01:43:17;;;;;;;22.48;10.07;;;10.40;90.60;;;;;;5053548;28;20104;-38
2022/04/06 01:45:43;;;;;;;21.85;10.20;;;10.40;90.60;;;;;;5053963;28;20519;-35
2022/04/06 01:48:09;;;;;;;17.67;9.48;;;10.40;90.50;;;;;;5054337;28;20023;-31
2022/04/06 01:53:18;;;;;;;15.82;8.25;;;10.40;90.60;;;;;;5054520;28;20032;-31
2022/04/06 01:55:44;;;;;;;17.95;8.07;;;10.40;90.60;;;;;;5054337;28;20370;-32
2022/04/06 01:58:10;;;;;;;21.30;8.32;;;10.40;90.60;;;;;;5054083;28;20036;-31
2022/04/06 02:00:35;;;;;;;17.13;7.88;;;10.40;90.60;;;;;;5053907;28;20045;-31
2022/04/06 02:03:01;;;;;;;14.65;7.65;;;10.40;90.50;;;;;;5054281;28;20083;-31
2022/04/06 02:05:31;;;;;;;17.40;7.70;;;10.40;90.50;;;;;;5053902;28;20104;-32
2022/04/06 02:07:59;;;;;;;14.82;7.13;;;10.40;90.50;;;;;;5053857;28;20076;-31
2022/04/06 02:10:25;;;;;;;15.10;7.70;;;10.40;90.50;;;;;;5053982;28;20399;-32
2022/04/06 02:12:55;;;;;;;16.17;7.53;;;10.40;90.50;;;;;;5053907;28;20048;-32
2022/04/06 02:15:21;;;;;;;16.05;7.25;;;10.40;90.50;;;;;;5054194;28;20100;-31
2022/04/06 02:17:47;;;;;;;13.90;7.18;;;10.40;90.50;;;;;;5054042;28;20067;-31
2022/04/06 02:20:13;;;;;;;14.25;7.13;;;10.40;90.40;;;;;;5053829;28;20057;-31
2022/04/06 02:22:40;;;;;;;22.30;8.10;;;10.40;90.40;;;;;;5052452;28;20051;-32
2022/04/06 02:25:06;;;;;;;16.70;6.65;;;10.40;90.40;;;;;;5052312;28;20017;-31
2022/04/06 02:27:31;;;;;;;14.82;7.10;;;10.40;90.40;;;;;;5053886;28;20447;-33
2022/04/06 02:29:57;;;;;;;15.70;6.75;;;10.30;90.30;;;;;;5053725;28;20028;-37
2022/04/06 02:32:22;;;;;;;15.10;6.57;;;10.40;90.30;;;;;;5053535;28;20029;-34
2022/04/06 02:34:48;;;;;;;15.93;6.60;;;10.30;90.30;;;;;;5053470;28;20025;-31
2022/04/06 02:37:14;;;;;;;15.98;6.40;;;10.30;90.30;;;;;;5053476;28;20025;-31
2022/04/06 02:39:39;;;;;;;20.08;7.55;;;10.30;90.30;;;;;;5053358;28;20025;-32
2022/04/06 02:42:06;;;;;;;13.55;5.85;;;10.30;90.20;;;;;;5053616;28;20017;-31
2022/04/06 02:44:33;;;;;;;15.63;6.15;;;10.30;90.20;;;;;;5053206;28;20025;-31
2022/04/06 02:46:58;;;;;;;16.67;7.07;;;10.30;90.20;;;;;;5053344;28;20029;-32
2022/04/06 02:49:24;;;;;;;16.05;6.13;;;10.30;90.20;;;;;;5053190;28;20027;-32
2022/04/06 02:51:50;;;;;;;13.32;6.72;;;10.20;90.10;;;;;;5053134;28;20028;-33
2022/04/06 02:54:16;;;;;;;15.18;5.68;;;10.30;90.10;;;;;;5051891;28;20040;-32
2022/04/06 02:56:42;;;;;;;13.65;6.20;;;10.30;90.10;;;;;;5052801;28;20021;-32
2022/04/06 02:59:07;;;;;;;13.35;5.63;;;10.20;90.10;;;;;;5053184;28;20087;-31
2022/04/06 03:01:33;;;;;;;14.13;6.03;;;10.30;90.10;;;;;;5051721;28;20040;-33
2022/04/06 03:03:59;;;;;;;12.98;5.00;;;10.30;90.10;;;;;;5053236;28;20036;-33
2022/04/06 03:06:25;;;;;;;11.68;4.78;;;10.20;90.10;;;;;;5052986;28;20033;-36
2022/04/06 03:08:50;;;;;;;15.00;5.10;;;10.20;90.10;;;;;;5052899;28;20064;-36
2022/04/06 03:11:16;;;;;;;12.77;5.15;;;10.30;90.10;;;;;;5053061;28;20025;-40
2022/04/06 03:13:41;;;;;;;8.77;5.15;;;10.20;90.00;;;;;;5053117;28;20029;-32
2022/04/06 03:16:07;;;;;;;15.02;4.95;;;10.20;90.00;;;;;;5052820;28;20530;-31
2022/04/06 03:18:33;;;;;;;13.30;5.53;;;10.20;90.00;;;;;;5052791;28;20052;-31
2022/04/06 03:20:59;;;;;;;11.48;4.53;;;10.20;89.90;;;;;;5052739;28;20033;-33
2022/04/06 03:23:24;;;;;;;11.65;4.80;;;10.20;89.90;;;;;;5052867;28;20037;-31
2022/04/06 03:25:50;;;;;;;16.20;5.25;;;10.20;89.60;;;;;;5052564;28;20473;-32
2022/04/06 03:28:16;;;;;;;11.60;5.00;;;10.10;89.30;;;;;;5052659;28;20094;-35
2022/04/06 03:30:42;;;;;;;11.98;4.70;;;10.10;89.30;;;;;;5052720;28;20024;-32
2022/04/06 03:33:09;;;;;;;8.82;4.13;;;10.10;89.20;;;;;;5052532;28;20103;-32
2022/04/06 03:35:38;;;;;;;10.23;4.47;;;10.10;89.20;;;;;;5052827;28;20469;-32
2022/04/06 03:38:04;;;;;;;11.95;4.57;;;10.10;88.90;;;;;;5051272;28;20031;-31
2022/04/06 03:40:30;;;;;;;9.02;4.00;;;10.10;88.90;;;;;;5052541;28;20115;-38
2022/04/06 03:42:56;;;;;;;9.63;4.05;;;10.10;88.80;;;;;;5052818;28;20056;-31
2022/04/06 03:45:22;;;;;;;11.32;4.45;;;10.10;88.50;;;;;;5052355;28;20037;-33
2022/04/06 03:47:48;;;;;;;8.30;3.70;;;10.00;88.30;;;;;;5052453;28;20032;-33
2022/04/06 03:50:14;;;;;;;12.73;3.47;;;10.00;88.30;;;;;;5052705;28;20025;-32
2022/04/06 03:52:41;;;;;;;9.35;3.88;;;10.00;88.30;;;;;;5051040;28;20077;-35
2022/04/06 03:55:08;;;;;;;9.88;3.38;;;10.00;88.30;;;;;;5052347;28;20489;-34
2022/04/06 03:57:35;;;;;;;15.57;3.40;;;9.90;87.90;;;;;;5052301;28;20025;-31
2022/04/06 04:00:04;;;;;;;8.50;3.17;;;9.90;87.90;;;;;;5052336;28;20505;-32
2022/04/06 04:02:29;;;;;;;8.10;3.05;;;9.90;87.70;;;;;;5052804;28;20422;-32
2022/04/06 04:04:55;;;;;;;8.48;3.15;;;9.90;87.70;;;;;;5050882;28;20116;-31
2022/04/06 04:07:21;;;;;;;7.45;3.30;;;9.90;87.80;;;;;;5053628;28;20028;-32
2022/04/06 04:09:49;;;;;;;8.25;3.15;;;9.80;87.80;;;;;;5056263;28;20477;-31
2022/04/06 04:12:15;;;;;;;8.35;3.10;;;9.80;87.70;;;;;;5056340;28;20449;-32
2022/04/06 04:14:41;;;;;;;9.25;3.00;;;9.80;87.50;;;;;;5056205;28;20037;-33
2022/04/06 04:17:06;;;;;;;8.45;2.95;;;9.80;87.30;;;;;;5056215;28;20025;-31
2022/04/06 04:19:32;;;;;;;6.65;2.88;;;9.80;87.00;;;;;;5056318;28;20036;-32
2022/04/06 04:21:58;;;;;;;7.80;2.70;;;9.80;87.00;;;;;;5056088;28;20036;-31
2022/04/06 04:24:23;;;;;;;9.13;2.85;;;9.80;87.00;;;;;;5056011;28;20033;-32
2022/04/06 04:26:50;;;;;;;8.90;2.75;;;9.80;86.80;;;;;;5055905;28;20143;-32
2022/04/06 04:29:16;;;;;;;7.30;2.53;;;9.80;86.80;;;;;;5054754;28;20400;-33
2022/04/06 04:31:42;;;;;;;5.53;2.40;;;9.80;87.00;;;;;;5056139;28;20385;-33
2022/04/06 04:34:07;;;;;;;7.70;2.50;;;9.80;86.90;;;;;;5054723;28;20025;-32
2022/04/06 04:36:33;;;;;;;8.18;2.72;;;9.80;86.80;;;;;;5055833;28;20017;-31
2022/04/06 04:38:58;;;;;;;7.47;2.70;;;9.80;86.90;;;;;;5055812;28;20021;-32
2022/04/06 04:41:25;;;;;;;6.90;2.67;;;9.80;86.80;;;;;;5055824;28;20021;-35
2022/04/06 04:43:50;;;;;;;6.13;2.50;;;9.80;86.90;;;;;;5054320;28;20021;-31
2022/04/06 04:46:19;;;;;;;9.48;2.67;;;9.80;86.80;;;;;;5055559;28;20531;-31
2022/04/06 04:48:45;;;;;;;6.85;2.97;;;9.80;86.50;;;;;;5055605;28;20330;-36
2022/04/06 04:51:14;;;;;;;5.35;2.00;;;9.80;86.60;;;;;;5054275;28;20044;-32
2022/04/06 04:53:41;;;;;;;4.75;2.35;;;9.80;86.70;;;;;;5055468;28;20489;-33
2022/04/06 04:56:07;;;;;;;7.63;2.70;;;9.80;86.60;;;;;;5055669;28;20179;-31
2022/04/06 04:58:33;;;;;;;6.72;2.45;;;9.80;86.60;;;;;;5055334;28;20504;-31
2022/04/06 05:00:59;;;;;;;6.32;2.40;;;9.80;86.50;;;;;;5055629;28;20036;-31
2022/04/06 05:03:24;;;;;;;8.32;2.63;;;9.80;86.50;;;;;;5055396;28;20099;-32
2022/04/06 05:05:53;;;;;;;6.15;2.63;;;9.80;86.50;;;;;;5055143;28;20065;-37
2022/04/06 05:08:22;;;;;;;10.32;2.83;;;9.80;86.50;;;;;;5055217;28;20103;-34
2022/04/06 05:10:48;;;;;;;5.70;2.30;;;9.80;86.30;;;;;;5055128;28;20067;-31
2022/04/06 05:13:14;;;;;;;7.32;2.17;;;9.80;86.40;;;;;;5055133;28;20083;-33
2022/04/06 05:15:41;;;;;;;6.47;2.83;;;9.80;86.30;;;;;;5055309;28;20428;-38
2022/04/06 05:18:06;;;;;;;6.97;2.50;;;9.80;86.30;;;;;;5054873;28;20368;-33
2022/04/06 05:20:32;;;;;;;7.50;2.58;;;9.80;86.30;;;;;;5055214;28;20100;-32
2022/04/06 05:22:58;;;;;;;7.60;2.88;;;9.80;86.20;;;;;;5054909;28;20033;-32
2022/04/06 05:25:24;;;;;;;5.75;2.70;;;9.80;86.20;;;;;;5054638;28;20056;-32
2022/04/06 05:27:51;;;;;;;5.90;2.30;;;9.80;86.20;;;;;;5054800;28;20024;-34
2022/04/06 05:30:20;;;;;;;6.35;2.60;;;9.80;86.20;;;;;;5054802;28;20051;-37
2022/04/06 05:32:48;;;;;;;8.13;2.80;;;9.90;86.30;;;;;;5054630;28;20029;-32
2022/04/06 05:35:14;;;;;;;7.32;2.80;;;9.90;86.20;;;;;;5054829;28;20546;-31
2022/04/06 05:37:41;;;;;;;6.35;3.10;;;9.90;86.10;;;;;;5054585;28;20021;-32
2022/04/06 05:40:09;;;;;;;8.45;3.55;;;9.80;86.70;;;;;;5054559;28;20040;-31
2022/04/06 05:42:35;;;;;;;7.05;2.85;;;9.80;86.10;;;;;;5054430;28;20028;-31
2022/04/06 05:45:02;;;;;;;7.20;2.88;;;9.90;86.20;;;;;;5054502;28;20032;-31
2022/04/06 05:47:28;;;;;;;6.75;2.88;;;9.90;86.20;;;;;;5054546;28;20029;-33
2022/04/06 05:49:54;;;;;;;8.27;2.90;;;9.90;86.10;;;;;;5053033;28;20468;-33
2022/04/06 05:52:20;;;;;;;6.85;2.63;;;9.90;86.10;;;;;;5054373;28;20032;-31
2022/04/06 05:54:46;;;;;;;7.80;2.90;;;9.90;86.20;;;;;;5054356;28;20033;-32
2022/04/06 05:57:11;;;;;;;5.57;2.70;;;9.90;86.70;;;;;;5054381;28;20489;-31
2022/04/06 05:59:37;;;;;;;8.13;2.92;;;9.90;86.10;;;;;;5053988;28;20049;-34
2022/04/06 06:02:04;;;;;;;7.32;2.70;;;9.90;86.00;;;;;;5052869;28;20124;-31
2022/04/06 06:04:29;;;;;;;6.63;2.70;;;9.90;86.00;;;;;;5054182;28;20040;-32
2022/04/06 06:06:55;;;;;;;7.03;2.70;;;9.90;85.90;;;;;;5054108;28;20029;-32
2022/04/06 06:09:21;;;;;;;8.68;2.70;;;10.00;86.00;;;;;;5052726;28;20029;-31
2022/04/06 06:11:46;;;;;;;8.30;2.88;;;10.00;85.90;;;;;;5052625;28;20029;-32
2022/04/06 06:14:12;;;;;;;9.02;3.17;;;10.00;85.80;;;;;;5054083;28;20489;-32
2022/04/06 06:16:38;;;;;;;7.38;3.08;;;10.00;85.60;;;;;;5053881;28;20021;-31
2022/04/06 06:19:03;;;;;;;3.95;2.72;;;10.00;85.70;;;;;;5053863;28;20029;-31
2022/04/06 06:21:32;;;;;;;9.40;3.42;;;10.10;85.70;;;;;;5053836;28;20025;-31
2022/04/06 06:24:02;;;;;;;7.05;3.30;;;10.10;85.70;;;;;;5053742;28;20021;-31
2022/04/06 06:26:28;;;;;;;7.38;3.90;;;10.10;85.60;;;;;;5053667;28;20033;-32
2022/04/06 06:28:53;;;;;;;8.35;3.63;;;10.10;85.40;;;;;;5053725;28;20029;-38
2022/04/06 06:31:19;;;;;;;10.00;4.10;;;10.10;85.50;;;;;;5053106;28;20067;-34
2022/04/06 06:33:45;;;;;;;10.77;4.22;;;10.20;85.40;;;;;;5053621;28;20214;-32
2022/04/06 06:36:11;;;;;;;8.75;3.70;;;10.20;85.50;;;;;;5053973;28;20029;-32
2022/04/06 06:38:37;;;;;;;8.32;3.70;;;10.20;85.60;;;;;;5053682;28;20043;-32
2022/04/06 06:41:02;;;;;;;12.95;4.55;;;10.20;85.60;;;;;;5053623;28;20094;-34
2022/04/06 06:43:28;;;;;;;10.05;3.97;;;10.20;85.60;;;;;;5052055;28;20170;-36
2022/04/06 06:45:53;;;;;;;9.07;3.88;;;10.20;85.60;;;;;;5051800;28;20120;-31
2022/04/06 06:48:19;;;;;;;11.82;4.95;;;10.20;85.60;;;;;;5051973;28;20032;-33
2022/04/06 06:50:45;;;;;;;10.02;4.03;;;10.30;85.70;;;;;;5053327;28;20569;-31
2022/04/06 06:53:10;;;;;;;11.95;4.55;;;10.30;85.60;;;;;;5053173;28;20025;-32
2022/04/06 06:55:36;;;;;;;10.65;4.55;;;10.30;85.60;;;;;;5053285;28;20112;-31
2022/04/06 06:58:01;;;;;;;11.82;4.93;;;10.30;85.50;;;;;;5053315;28;20032;-31
2022/04/06 07:00:27;;;;;;;8.63;3.90;;;10.20;85.30;;;;;;5052983;28;20556;-32
2022/04/06 07:02:52;;;;;;;9.20;4.40;;;10.30;85.20;;;;;;5053071;28;20128;-33
2022/04/06 07:05:18;;;;;;;9.35;4.18;;;10.30;85.30;;;;;;5052927;28;20503;-34
2022/04/06 07:07:55;;;;;;;13.60;4.13;;;10.30;85.10;;;;;;5053109;28;20071;-33
2022/04/06 07:10:22;;;;;;;11.48;4.20;;;10.30;85.00;;;;;;5053261;28;20036;-31
2022/04/06 07:12:48;;;;;;;7.43;3.95;;;10.30;84.90;;;;;;5052970;28;20051;-34
2022/04/06 07:15:14;;;;;;;8.23;3.53;;;10.30;84.90;;;;;;5052926;28;20037;-32
2022/04/06 07:17:40;;;;;;;9.80;3.72;;;10.30;84.80;;;;;;5053067;28;20021;-32
2022/04/06 07:20:06;;;;;;;9.80;3.35;;;10.30;84.40;;;;;;5052956;28;20044;-31
2022/04/06 07:22:31;;;;;;;7.60;3.20;;;10.30;83.90;;;;;;5052711;28;20036;-35
2022/04/06 07:24:57;;;;;;;11.73;3.42;;;10.30;84.10;;;;;;5052889;28;20481;-31
2022/04/06 07:27:22;;;;;;;7.32;2.80;;;10.30;84.10;;;;;;5052816;28;20032;-32
2022/04/06 07:29:48;;;;;;;9.55;2.72;;;10.40;84.00;;;;;;5052645;28;20025;-38
2022/04/06 07:32:13;;;;;;;10.27;2.88;;;10.40;83.50;;;;;;5052616;28;20025;-34
2022/04/06 07:34:39;;;;;;;9.68;2.92;;;10.40;83.00;;;;;;5052779;28;20037;-34
2022/04/06 07:37:04;;;;;;;8.93;2.50;;;10.40;83.30;;;;;;5052431;28;20108;-32
2022/04/06 07:39:30;;;;;;;4.40;2.20;;;10.50;83.30;;;;;;5052472;28;20029;-31
2022/04/06 07:41:56;;;;;;;6.72;2.20;;;10.50;83.40;;;;;;5051571;28;20032;-31
2022/04/06 07:44:22;;;;;;;8.18;2.50;;;10.50;83.10;;;;;;5052748;28;20552;-31
2022/04/06 07:46:48;;;;;;;7.38;2.10;;;10.50;82.60;;;;;;5052500;28;20032;-32
2022/04/06 07:49:14;;;;;;;6.80;2.00;;;10.50;82.40;;;;;;5052546;28;20029;-33
2022/04/06 07:51:39;;;;;;;4.45;1.90;;;10.60;82.60;;;;;;5052699;28;20021;-36
2022/04/06 07:54:05;;;;;;;6.85;1.90;;;10.60;82.70;;;;;;5052434;28;20021;-36
2022/04/06 07:56:31;;;;;;;4.50;1.67;;;10.70;82.60;;;;;;5052786;28;20357;-31
2022/04/06 07:58:56;;;;;;;4.90;1.65;;;10.70;82.40;;;;;;5051989;28;20485;-30
2022/04/06 08:01:22;;;;;;;6.38;2.10;;;10.70;81.70;;;;;;5051911;28;20036;-32
2022/04/06 08:03:47;;;;;;;4.25;1.80;;;10.80;80.80;;;;;;5052185;28;20039;-31
2022/04/06 08:06:13;;;;;;;7.13;2.30;;;10.80;81.10;;;;;;5052504;28;20552;-31
2022/04/06 08:08:39;;;;;;;2.40;1.33;;;10.80;80.90;;;;;;5052385;28;20029;-32
2022/04/06 08:11:05;;;;;;;6.38;2.45;;;10.90;81.00;;;;;;5052482;28;20436;-35
2022/04/06 08:13:32;;;;;;;7.57;2.03;;;11.00;81.20;;;;;;5052481;28;20040;-31
2022/04/06 08:15:58;;;;;;;5.15;2.10;;;11.00;79.10;;;;;;5052588;28;20489;-31
2022/04/06 08:18:24;;;;;;;6.72;1.90;;;10.90;78.40;;;;;;5052569;28;20461;-31
2022/04/06 08:20:49;;;;;;;3.80;1.60;;;11.00;78.50;;;;;;5052158;28;20091;-32
2022/04/06 08:23:17;;;;;;;5.80;1.98;;;11.00;78.70;;;;;;5052233;28;20025;-31
2022/04/06 08:25:43;;;;;;;5.07;1.63;;;11.10;78.50;;;;;;5050784;28;20025;-31
2022/04/06 08:28:10;;;;;;;6.38;2.00;;;11.10;78.00;;;;;;5052219;28;20393;-31
2022/04/06 08:30:40;;;;;;;7.07;2.00;;;11.10;78.10;;;;;;5052296;28;20501;-31
2022/04/06 08:33:06;;;;;;;6.63;2.28;;;11.10;77.00;;;;;;5052309;28;20036;-31
2022/04/06 08:35:31;;;;;;;4.50;1.80;;;11.00;76.70;;;;;;5052123;28;20033;-34
2022/04/06 08:37:57;;;;;;;7.05;2.45;;;11.00;77.20;;;;;;5052113;28;20171;-32
2022/04/06 08:40:23;;;;;;;6.25;2.60;;;11.00;78.10;;;;;;5052329;28;20460;-32
2022/04/06 08:42:49;;;;;;;8.15;2.15;;;11.00;77.30;;;;;;5052022;28;20029;-32
2022/04/06 08:45:16;;;;;;;4.57;1.90;;;11.00;78.00;;;;;;5052200;28;20477;-35
2022/04/06 08:47:44;;;;;;;6.57;3.00;;;11.00;78.10;;;;;;5051886;28;20029;-31
2022/04/06 08:50:10;;;;;;;6.00;2.28;;;11.00;78.30;;;;;;5052286;28;20366;-32
2022/04/06 08:52:35;;;;;;;6.20;2.50;;;11.10;78.00;;;;;;5052048;28;20106;-32
2022/04/06 08:55:02;;;;;;;3.72;2.00;;;11.10;78.10;;;;;;5055622;28;20025;-31
2022/04/06 08:57:27;;;;;;;5.45;1.83;;;11.10;78.30;;;;;;5055534;28;20037;-31
2022/04/06 08:59:54;;;;;;;8.20;2.33;;;11.10;78.60;;;;;;5053953;28;20419;-32
2022/04/06 09:02:20;;;;;;;9.40;2.75;;;11.10;78.60;;;;;;5055458;28;20032;-32
2022/04/06 09:04:51;;;;;;;5.15;2.30;;;11.10;78.70;;;;;;5053950;28;20234;-33
2022/04/06 09:07:20;;;;;;;7.35;2.60;;;11.10;79.20;;;;;;5055410;28;20542;-32
2022/04/06 09:09:51;;;;;;;9.02;3.63;;;11.10;79.70;;;;;;5055094;28;20118;-33
2022/04/06 09:12:19;;;;;;;10.98;3.25;;;11.10;79.70;;;;;;5055279;28;20496;-33
2022/04/06 09:14:45;;;;;;;7.13;3.13;;;11.00;79.90;;;;;;5055429;28;20504;-31
2022/04/06 09:17:10;;;;;;;10.75;3.10;;;11.00;80.10;;;;;;5055158;28;20032;-34
2022/04/06 09:19:37;;;;;;;8.82;3.47;;;10.90;80.30;;;;;;5055270;28;20033;-32
2022/04/06 09:22:07;;;;;;;8.68;3.10;;;10.90;80.70;;;;;;5055138;28;20122;-32
2022/04/06 09:24:33;;;;;;;8.60;3.20;;;10.90;80.90;;;;;;5053573;28;20385;-32
2022/04/06 09:27:00;;;;;;;7.90;2.90;;;10.90;81.10;;;;;;5053660;28;20021;-31
2022/04/06 09:29:25;;;;;;;7.25;3.35;;;10.80;81.40;;;;;;5055108;28;20028;-33
2022/04/06 09:31:52;;;;;;;6.50;3.20;;;10.80;81.80;;;;;;5054639;28;20473;-31
2022/04/06 09:34:27;;;;;;;7.60;3.30;;;10.70;82.10;;;;;;5054847;28;20116;-34
2022/04/06 09:36:56;;;;;;;6.20;3.63;;;10.70;82.40;;;;;;5054700;28;20044;-32
2022/04/06 09:39:42;;;;;;;9.68;3.75;;;10.60;82.50;;;;;;5053429;28;20398;-34
2022/04/06 09:42:07;;;;;;;7.30;3.70;;;10.60;82.90;;;;;;5054859;28;20547;-32
2022/04/06 09:47:39;;;;;;;6.97;3.35;;;10.50;83.30;;;;;;5054844;28;20446;-31
2022/04/06 09:50:22;;;;;;;6.22;3.47;;;10.60;83.50;;;;;;5053292;28;20517;-33
2022/04/06 09:52:52;;;;;;;6.72;3.40;;;10.50;83.70;;;;;;5054596;28;20431;-33
2022/04/06 09:55:21;;;;;;;8.02;3.97;;;10.50;84.00;;;;;;5054515;28;20094;-31
2022/04/06 09:57:58;;;;;;;9.52;4.32;;;10.50;84.20;;;;;;5054215;28;20064;-36
2022/04/06 10:00:29;;;;;;;12.38;6.97;;;10.50;84.50;;;;;;5054060;28;20049;-36
2022/04/06 10:03:06;;;;;;;11.32;6.13;;;10.40;84.90;;;;;;5054014;28;20025;-32
2022/04/06 10:05:37;;;;;;;8.52;5.07;;;10.50;85.10;;;;;;5053036;28;20025;-34
2022/04/06 10:08:04;;;;;;;8.23;4.80;;;10.50;85.20;;;;;;5054079;28;20021;-33
2022/04/06 10:10:31;;;;;;;10.15;6.72;;;10.50;85.40;;;;;;5054046;28;20477;-31
2022/04/06 10:12:57;;;;;;;7.60;4.35;;;10.60;85.50;;;;;;5053936;28;20021;-33
2022/04/06 10:15:24;;;;;;;6.13;3.92;;;10.60;85.60;;;;;;5053972;28;20017;-33
2022/04/06 10:17:50;;;;;;;6.28;4.00;;;10.60;85.70;;;;;;5053832;28;20429;-34
2022/04/06 10:20:27;;;;;;;9.38;4.10;;;10.60;85.80;;;;;;5053893;28;20056;-31
2022/04/06 10:23:12;;;;;;;8.25;4.35;;;10.60;86.00;;;;;;5053722;28;20025;-31
2022/04/06 10:26:08;;;;;;;8.02;4.10;;;10.60;86.00;;;;;;5053669;28;20029;-32
2022/04/06 10:28:34;;;;;;;8.43;4.30;;;10.60;86.20;;;;;;5053649;28;20377;-31
2022/04/06 10:31:11;;;;;;;6.72;4.20;;;10.50;86.40;;;;;;5053566;28;20017;-38
2022/04/06 10:33:37;;;;;;;7.07;4.15;;;10.40;86.70;;;;;;5053344;28;20025;-32
2022/04/06 10:36:16;;;;;;;5.65;4.10;;;10.40;86.80;;;;;;5053574;28;20024;-35
2022/04/06 10:39:08;;;;;;;6.40;4.00;;;10.40;87.00;;;;;;5053751;28;20100;-36
2022/04/06 10:41:35;;;;;;;7.70;5.05;;;10.40;86.90;;;;;;5053256;28;20500;-30
2022/04/06 10:44:00;;;;;;;8.13;4.68;;;10.40;87.00;;;;;;5053540;28;20017;-32
2022/04/06 10:46:41;;;;;;;8.20;4.32;;;10.40;87.10;;;;;;5053174;28;20024;-34
2022/04/06 10:49:07;;;;;;;6.93;4.38;;;10.40;87.20;;;;;;5053238;28;20025;-31
2022/04/06 10:51:35;;;;;;;8.15;4.90;;;10.40;87.30;;;;;;5053153;28;20389;-41
2022/04/06 10:54:12;;;;;;;10.32;4.72;;;10.40;87.50;;;;;;5053484;28;20025;-35
2022/04/06 10:56:50;;;;;;;8.60;4.40;;;10.40;87.60;;;;;;5053167;28;20078;-32
2022/04/06 10:59:19;;;;;;;7.07;4.90;;;10.40;87.80;;;;;;5052903;28;20053;-35
2022/04/06 11:01:46;;;;;;;8.02;5.25;;;10.40;88.00;;;;;;5053036;28;20029;-32
2022/04/06 11:04:22;;;;;;;6.88;4.60;;;10.40;88.10;;;;;;5053016;28;20036;-31
2022/04/06 11:06:55;;;;;;;8.00;4.78;;;10.40;88.40;;;;;;5051610;28;20036;-31
2022/04/06 11:12:19;;;;;;;8.07;4.68;;;10.40;89.10;;;;;;5053072;28;20032;-34
2022/04/06 11:15:00;;;;;;;5.43;4.57;;;10.40;88.60;;;;;;5052726;28;20029;-33
2022/04/06 11:17:32;;;;;;;7.47;4.63;;;10.40;88.50;;;;;;5051151;28;20496;-31
2022/04/06 11:19:59;;;;;;;9.55;5.65;;;10.50;88.70;;;;;;5052959;28;20025;-31
2022/04/06 11:22:25;;;;;;;8.98;5.82;;;10.50;88.80;;;;;;5052613;28;20025;-32
2022/04/06 11:24:51;;;;;;;9.05;5.32;;;10.50;88.80;;;;;;5052630;28;20036;-33
2022/04/06 11:27:49;;;;;;;8.55;4.80;;;10.50;88.90;;;;;;5052609;28;20021;-31
2022/04/06 11:30:16;;;;;;;7.20;5.10;;;10.60;88.90;;;;;;5040615;28;20503;-33
2022/04/06 11:32:49;;;;;;;7.32;4.95;;;10.60;88.90;;;;;;5052651;28;20021;-36
2022/04/06 11:35:16;;;;;;;;;;;10.70;88.80;;;;;;5052879;28;20036;-32
2022/04/06 11:37:46;;;;;;;8.00;4.93;;;10.70;88.80;;;;;;5050993;28;19905;-32
2022/04/06 11:40:12;;;;;;;7.07;4.85;;;10.80;88.70;;;;;;5051324;28;20021;-32
2022/04/06 11:42:39;;;;;;;5.45;4.65;;;10.80;88.60;;;;;;5052430;28;20025;-32
2022/04/06 11:45:05;;;;;;;5.75;4.45;;;10.80;88.40;;;;;;5052461;28;20112;-31
2022/04/06 11:47:36;;;;;;;5.30;4.20;;;10.90;88.40;;;;;;5052511;28;20507;-32
2022/04/06 11:50:10;;;;;;;7.25;4.32;;;11.00;88.20;;;;;;5052816;28;20492;-32
2022/04/06 11:52:40;;;;;;;5.47;4.07;;;11.00;88.00;;;;;;5052648;28;20268;-37
2022/04/06 11:55:07;;;;;;;6.95;4.00;;;11.00;88.00;;;;;;5051073;28;20186;-32
2022/04/06 11:57:45;;;;;;;5.20;4.18;;;11.00;87.80;;;;;;5052566;28;20476;-35
2022/04/06 12:00:13;;;;;;;9.00;4.13;;;11.00;87.80;;;;;;5052122;28;20094;-32
2022/04/06 12:02:52;;;;;;;5.30;3.72;;;11.00;87.70;;;;;;5052338;28;20021;-31
2022/04/06 12:05:19;;;;;;;5.43;4.00;;;11.00;87.80;;;;;;5052160;28;20069;-33
2022/04/06 12:07:45;;;;;;;7.05;4.35;;;11.00;87.70;;;;;;5052182;28;20521;-32
2022/04/06 12:10:12;;;;;;;5.68;4.10;;;11.00;87.50;;;;;;5052453;28;20017;-33
2022/04/06 12:12:39;;;;;;;7.03;3.80;;;11.00;87.50;;;;;;5052405;28;20536;-31
2022/04/06 12:15:06;;;;;;;7.93;4.00;;;11.00;87.50;;;;;;5052180;28;20029;-34
2022/04/06 12:17:33;;;;;;;9.27;4.03;;;11.00;87.40;;;;;;5052045;28;20029;-35
2022/04/06 12:19:59;;;;;;;6.50;4.30;;;11.10;87.50;;;;;;5052157;28;20025;-34
2022/04/06 12:22:26;;;;;;;6.25;3.60;;;11.10;87.40;;;;;;5052263;28;20021;-34
2022/04/06 12:24:52;;;;;;;5.43;3.20;;;11.20;87.40;;;;;;5051931;28;20178;-31
2022/04/06 12:27:30;;;;;;;4.22;3.70;;;11.20;87.20;;;;;;5052381;28;20040;-32
2022/04/06 12:30:10;;;;;;;6.72;3.72;;;11.30;87.10;;;;;;5055928;28;20496;-33
2022/04/06 12:32:46;;;;;;;6.72;3.53;;;11.30;86.90;;;;;;5055723;28;20051;-32
2022/04/06 12:35:24;;;;;;;5.55;3.97;;;11.30;86.70;;;;;;5054536;28;20025;-33
2022/04/06 12:37:50;;;;;;;8.02;3.92;;;11.30;86.60;;;;;;5055719;28;20067;-32
2022/04/06 12:40:23;;;;;;;6.57;3.97;;;11.30;86.50;;;;;;5055690;28;20036;-31
2022/04/06 12:42:49;;;;;;;4.32;3.42;;;11.30;86.20;;;;;;5055582;28;20033;-30
2022/04/06 12:45:15;;;;;;;6.68;4.15;;;11.40;86.10;;;;;;5054219;28;20391;-32
2022/04/06 12:47:41;;;;;;;6.53;3.53;;;11.40;85.90;;;;;;5055514;28;20096;-31
2022/04/06 12:50:11;;;;;;;5.82;3.35;;;11.40;85.80;;;;;;5055843;28;20028;-30
2022/04/06 12:52:37;;;;;;;8.63;3.20;;;11.40;85.60;;;;;;5055696;28;20488;-31
2022/04/06 12:55:14;;;;;;;5.15;3.20;;;11.40;85.50;;;;;;5055414;28;20032;-31
2022/04/06 12:57:40;;;;;;;7.70;3.53;;;11.40;85.40;;;;;;5055352;28;20025;-32